Time;durP1;ratioP1;P1;durP2;ratioP2;P2;SDS_P1;SDS_P2;PMS_P1;PMS_P2;Temp;Humidity;BMP_temperature;BMP_pressure;BME280_temperature;BME280_humidity;BME280_pressure;Samples;Min_cycle;Max_cycle;Signal;HPM_P1;HPM_P2
2022/08/10 00:01:16;;;;;;;5.10;3.17;;;;;;;;;;5134260;28;20523;-63
2022/08/10 00:03:45;;;;;;;4.23;3.23;;;;;;;;;;5134131;28;20793;-64
2022/08/10 00:06:12;;;;;;;3.60;3.30;;;;;;;;;;5137295;27;20447;-63
2022/08/10 00:08:39;;;;;;;5.13;3.10;;;;;;;;;;5138245;27;20797;-64
2022/08/10 00:11:08;;;;;;;5.13;3.20;;;;;;;;;;5138283;27;20462;-64
2022/08/10 00:13:35;;;;;;;8.67;3.40;;;;;;;;;;5138227;27;20561;-64
2022/08/10 00:16:03;;;;;;;3.80;3.50;;;;;;;;;;5138336;27;20443;-63
2022/08/10 00:18:30;;;;;;;3.40;3.07;;;;;;;;;;5138143;27;20447;-63
2022/08/10 00:20:57;;;;;;;5.20;3.20;;;;;;;;;;5138014;27;20445;-63
2022/08/10 00:23:25;;;;;;;3.50;3.20;;;;;;;;;;5138070;27;20450;-63
2022/08/10 00:25:52;;;;;;;3.30;3.00;;;;;;;;;;5137592;27;20528;-63
2022/08/10 00:28:20;;;;;;;3.33;3.13;;;;;;;;;;5138308;27;20541;-62
2022/08/10 00:30:48;;;;;;;4.80;3.50;;;;;;;;;;5137466;27;20445;-64
2022/08/10 00:33:15;;;;;;;4.67;3.40;;;;;;;;;;5137640;27;20932;-63
2022/08/10 00:35:42;;;;;;;3.20;3.00;;;;;;;;;;5137768;27;20444;-64
2022/08/10 00:38:09;;;;;;;6.27;3.77;;;;;;;;;;5137474;27;20470;-64
2022/08/10 00:40:37;;;;;;;3.83;3.40;;;;;;;;;;5137618;27;20526;-63
2022/08/10 00:43:04;;;;;;;4.50;3.83;;;;;;;;;;5137703;27;20441;-63
2022/08/10 00:45:33;;;;;;;4.80;3.10;;;;;;;;;;5137682;27;20449;-63
2022/08/10 00:48:00;;;;;;;3.67;2.97;;;;;;;;;;5137782;27;20517;-63
2022/08/10 00:50:27;;;;;;;4.03;3.63;;;;;;;;;;5137636;27;20440;-64
2022/08/10 00:52:54;;;;;;;5.77;3.80;;;;;;;;;;5137224;27;20446;-63
2022/08/10 00:55:22;;;;;;;3.80;3.33;;;;;;;;;;5137505;27;20573;-63
2022/08/10 00:57:50;;;;;;;3.80;3.40;;;;;;;;;;5137399;27;20529;-63
2022/08/10 01:00:17;;;;;;;4.40;3.67;;;;;;;;;;5137939;27;20526;-63
2022/08/10 01:02:46;;;;;;;4.37;4.00;;;;;;;;;;5137317;27;20812;-63
2022/08/10 01:05:14;;;;;;;3.83;3.43;;;;;;;;;;5136900;27;20447;-63
2022/08/10 01:07:59;;;;;;;3.40;3.20;;;;;;;;;;5137209;27;20447;-63
2022/08/10 01:10:30;;;;;;;6.33;3.87;;;;;;;;;;5136823;27;20434;-63
2022/08/10 01:13:01;;;;;;;3.80;3.50;;;;;;;;;;5137228;27;20427;-63
2022/08/10 01:15:29;;;;;;;3.50;3.30;;;;;;;;;;5136413;27;20966;-63
2022/08/10 01:18:01;;;;;;;4.00;3.70;;;;;;;;;;5136035;27;20521;-63
2022/08/10 01:20:33;;;;;;;4.30;3.90;;;;;;;;;;5136522;27;20519;-63
2022/08/10 01:23:16;;;;;;;4.10;3.57;;;;;;;;;;5137320;27;20427;-63
2022/08/10 01:25:59;;;;;;;6.10;4.27;;;;;;;;;;5136985;27;20513;-63
2022/08/10 01:28:33;;;;;;;4.17;3.77;;;;;;;;;;5137120;27;20454;-63
2022/08/10 01:31:03;;;;;;;4.47;4.07;;;;;;;;;;5136847;27;20506;-63
2022/08/10 01:33:32;;;;;;;4.67;4.27;;;;;;;;;;5136320;27;20458;-63
2022/08/10 01:36:03;;;;;;;4.30;4.00;;;;;;;;;;5137312;27;20470;-62
2022/08/10 01:38:33;;;;;;;6.77;3.90;;;;;;;;;;5136334;27;20461;-63
2022/08/10 01:41:03;;;;;;;3.87;3.43;;;;;;;;;;5137004;27;20423;-63
2022/08/10 01:43:32;;;;;;;4.07;3.77;;;;;;;;;;5136056;27;20441;-63
2022/08/10 01:46:01;;;;;;;5.10;4.70;;;;;;;;;;5136461;27;20438;-64
2022/08/10 01:48:30;;;;;;;3.90;3.60;;;;;;;;;;5136070;27;20449;-63
2022/08/10 01:51:12;;;;;;;6.17;3.90;;;;;;;;;;5136279;27;20435;-63
2022/08/10 01:53:41;;;;;;;4.70;4.30;;;;;;;;;;5133380;27;20458;-63
2022/08/10 01:56:08;;;;;;;4.40;3.67;;;;;;;;;;5136029;27;20529;-63
2022/08/10 01:58:37;;;;;;;4.70;4.30;;;;;;;;;;5135875;27;20537;-63
2022/08/10 02:01:05;;;;;;;4.83;4.27;;;;;;;;;;5136160;27;20429;-63
2022/08/10 02:03:34;;;;;;;5.30;4.07;;;;;;;;;;5136879;27;20517;-63
2022/08/10 02:06:01;;;;;;;4.80;3.70;;;;;;;;;;5135681;27;20533;-63
2022/08/10 02:08:29;;;;;;;5.40;4.17;;;;;;;;;;5135690;27;20475;-63
2022/08/10 02:10:57;;;;;;;4.90;4.40;;;;;;;;;;5136065;27;20440;-63
2022/08/10 02:13:25;;;;;;;4.60;4.17;;;;;;;;;;5136290;27;20464;-64
2022/08/10 02:15:54;;;;;;;4.40;4.00;;;;;;;;;;5135877;27;20507;-64
2022/08/10 02:18:23;;;;;;;4.63;4.13;;;;;;;;;;5136349;27;20483;-64
2022/08/10 02:20:52;;;;;;;4.70;4.30;;;;;;;;;;5135675;27;20597;-64
2022/08/10 02:23:23;;;;;;;4.87;4.50;;;;;;;;;;5136198;27;20438;-63
2022/08/10 02:25:50;;;;;;;5.07;4.13;;;;;;;;;;5135310;27;20435;-64
2022/08/10 02:28:18;;;;;;;4.13;3.73;;;;;;;;;;5135179;27;20440;-63
2022/08/10 02:30:46;;;;;;;4.47;4.07;;;;;;;;;;5135502;27;20520;-64
2022/08/10 02:33:14;;;;;;;4.70;4.30;;;;;;;;;;5135170;27;20532;-63
2022/08/10 02:35:41;;;;;;;4.87;4.47;;;;;;;;;;5135231;27;20829;-63
2022/08/10 02:38:10;;;;;;;5.33;4.10;;;;;;;;;;5135129;27;20524;-63
2022/08/10 02:40:40;;;;;;;9.93;4.47;;;;;;;;;;5135470;27;20451;-63
2022/08/10 02:43:12;;;;;;;4.77;4.47;;;;;;;;;;5135056;27;20517;-63
2022/08/10 02:45:42;;;;;;;5.50;4.20;;;;;;;;;;5135503;27;20454;-63
2022/08/10 02:48:12;;;;;;;5.77;4.40;;;;;;;;;;5134987;27;20899;-62
2022/08/10 02:50:41;;;;;;;5.30;4.90;;;;;;;;;;5134899;27;20434;-63
2022/08/10 02:53:13;;;;;;;5.57;5.07;;;;;;;;;;5134831;27;20474;-64
2022/08/10 02:55:42;;;;;;;5.00;4.50;;;;;;;;;;5134754;27;20973;-64
2022/08/10 02:58:10;;;;;;;6.93;4.77;;;;;;;;;;5135199;27;20864;-63
2022/08/10 03:00:41;;;;;;;5.37;4.63;;;;;;;;;;5134699;27;20928;-63
2022/08/10 03:03:10;;;;;;;5.53;5.13;;;;;;;;;;5134747;27;20907;-63
2022/08/10 03:05:37;;;;;;;7.50;4.73;;;;;;;;;;5135068;27;20856;-63
2022/08/10 03:08:06;;;;;;;5.80;4.70;;;;;;;;;;5134822;27;20440;-63
2022/08/10 03:10:40;;;;;;;5.97;5.40;;;;;;;;;;5134853;27;20534;-63
2022/08/10 03:13:08;;;;;;;4.77;4.40;;;;;;;;;;5134830;27;20513;-63
2022/08/10 03:15:38;;;;;;;8.33;5.40;;;;;;;;;;5134850;27;20966;-63
2022/08/10 03:18:06;;;;;;;6.23;4.87;;;;;;;;;;5134692;27;20529;-64
2022/08/10 03:20:34;;;;;;;5.30;4.80;;;;;;;;;;5134563;27;20955;-64
2022/08/10 03:23:02;;;;;;;5.30;4.90;;;;;;;;;;5134749;27;20813;-63
2022/08/10 03:25:30;;;;;;;5.80;4.57;;;;;;;;;;5134550;27;20533;-63
2022/08/10 03:27:59;;;;;;;7.73;4.60;;;;;;;;;;5134610;27;20858;-63
2022/08/10 03:30:26;;;;;;;5.50;5.00;;;;;;;;;;5134508;27;20802;-63
2022/08/10 03:32:54;;;;;;;7.37;4.60;;;;;;;;;;5134582;27;20541;-63
2022/08/10 03:35:22;;;;;;;5.07;4.67;;;;;;;;;;5134168;27;20823;-63
2022/08/10 03:37:49;;;;;;;7.40;5.80;;;;;;;;;;5134341;28;20445;-63
2022/08/10 03:40:16;;;;;;;4.43;4.07;;;;;;;;;;5134449;27;20477;-63
2022/08/10 03:42:45;;;;;;;6.27;5.70;;;;;;;;;;5134472;28;20437;-63
2022/08/10 03:45:13;;;;;;;6.10;5.30;;;;;;;;;;5135028;28;20542;-63
2022/08/10 03:47:42;;;;;;;5.00;4.60;;;;;;;;;;5134220;28;20970;-63
2022/08/10 03:50:10;;;;;;;7.40;5.27;;;;;;;;;;5134922;28;20615;-63
2022/08/10 03:52:37;;;;;;;5.43;4.93;;;;;;;;;;5134284;28;20441;-63
2022/08/10 03:55:05;;;;;;;5.50;5.10;;;;;;;;;;5134557;28;20507;-64
2022/08/10 03:57:33;;;;;;;5.30;4.87;;;;;;;;;;5133304;28;20457;-64
2022/08/10 04:00:00;;;;;;;5.60;4.90;;;;;;;;;;5133921;28;20444;-64
2022/08/10 04:02:29;;;;;;;9.93;5.50;;;;;;;;;;5133754;28;20968;-64
2022/08/10 04:04:56;;;;;;;5.90;5.30;;;;;;;;;;5133815;28;20456;-63
2022/08/10 04:07:23;;;;;;;6.67;5.97;;;;;;;;;;5134026;28;20529;-64
2022/08/10 04:09:52;;;;;;;7.47;4.27;;;;;;;;;;5134167;28;20804;-63
2022/08/10 04:12:19;;;;;;;5.90;5.30;;;;;;;;;;5133647;27;20533;-64
2022/08/10 04:14:47;;;;;;;6.43;5.37;;;;;;;;;;5134226;28;20496;-64
2022/08/10 04:17:14;;;;;;;5.80;5.20;;;;;;;;;;5133935;28;20447;-64
2022/08/10 04:19:45;;;;;;;5.83;5.40;;;;;;;;;;5134163;28;20448;-64
2022/08/10 04:22:15;;;;;;;8.03;5.33;;;;;;;;;;5134072;28;20426;-65
2022/08/10 04:24:44;;;;;;;16.43;5.77;;;;;;;;;;5133807;28;20430;-64
2022/08/10 04:27:11;;;;;;;9.23;5.67;;;;;;;;;;5133821;28;20442;-64
2022/08/10 04:29:39;;;;;;;8.80;5.70;;;;;;;;;;5133663;28;20962;-64
2022/08/10 04:32:09;;;;;;;5.07;4.57;;;;;;;;;;5133936;28;20446;-64
2022/08/10 04:34:38;;;;;;;6.87;5.43;;;;;;;;;;5133667;28;20466;-64
2022/08/10 04:37:07;;;;;;;7.60;6.90;;;;;;;;;;5133487;28;20434;-64
2022/08/10 04:39:34;;;;;;;6.23;5.23;;;;;;;;;;5133774;28;20429;-63
2022/08/10 04:42:02;;;;;;;5.43;4.87;;;;;;;;;;5133602;28;20978;-64
2022/08/10 04:44:29;;;;;;;7.27;5.90;;;;;;;;;;5133260;28;20922;-63
2022/08/10 04:46:56;;;;;;;5.73;5.13;;;;;;;;;;5133818;28;20525;-63
2022/08/10 04:49:23;;;;;;;5.70;5.20;;;;;;;;;;5133818;28;20530;-64
2022/08/10 04:51:51;;;;;;;5.90;5.40;;;;;;;;;;5134158;27;20930;-64
2022/08/10 04:54:19;;;;;;;9.43;5.97;;;;;;;;;;5137456;27;20432;-63
2022/08/10 04:56:46;;;;;;;5.77;5.17;;;;;;;;;;5137257;27;20506;-64
2022/08/10 04:59:13;;;;;;;7.70;6.47;;;;;;;;;;5137375;27;20442;-64
2022/08/10 05:01:41;;;;;;;5.60;5.00;;;;;;;;;;5136594;27;20444;-63
2022/08/10 05:04:08;;;;;;;6.40;5.83;;;;;;;;;;5137196;27;20438;-64
2022/08/10 05:06:35;;;;;;;5.80;5.20;;;;;;;;;;5136873;27;20445;-64
2022/08/10 05:09:02;;;;;;;10.40;5.50;;;;;;;;;;5136826;27;20430;-64
2022/08/10 05:11:31;;;;;;;8.00;5.40;;;;;;;;;;5137254;27;20448;-64
2022/08/10 05:13:58;;;;;;;7.73;5.37;;;;;;;;;;5135429;27;20478;-63
2022/08/10 05:16:25;;;;;;;10.70;5.93;;;;;;;;;;5134790;27;20469;-63
2022/08/10 05:18:53;;;;;;;5.67;5.17;;;;;;;;;;5136210;27;20438;-69
2022/08/10 05:21:20;;;;;;;6.80;5.30;;;;;;;;;;5136332;27;20439;-65
2022/08/10 05:23:47;;;;;;;7.33;5.80;;;;;;;;;;5136612;27;20447;-66
2022/08/10 05:26:14;;;;;;;6.10;5.50;;;;;;;;;;5136898;27;20438;-66
2022/08/10 05:28:43;;;;;;;8.93;6.07;;;;;;;;;;5137073;27;20451;-65
2022/08/10 05:31:10;;;;;;;7.00;5.60;;;;;;;;;;5136756;27;20844;-66
2022/08/10 05:33:37;;;;;;;5.77;5.20;;;;;;;;;;5136485;27;20447;-66
2022/08/10 05:36:05;;;;;;;11.33;5.63;;;;;;;;;;5136259;27;20480;-66
2022/08/10 05:38:33;;;;;;;5.90;5.40;;;;;;;;;;5136332;27;20521;-66
2022/08/10 05:41:00;;;;;;;6.00;5.40;;;;;;;;;;5136687;27;20476;-66
2022/08/10 05:43:28;;;;;;;5.90;5.30;;;;;;;;;;5136577;27;20437;-65
2022/08/10 05:45:56;;;;;;;8.87;5.50;;;;;;;;;;5136444;27;20438;-66
2022/08/10 05:48:23;;;;;;;10.03;5.70;;;;;;;;;;5136593;27;20938;-66
2022/08/10 05:50:51;;;;;;;7.33;5.70;;;;;;;;;;5136592;27;20521;-66
2022/08/10 05:53:18;;;;;;;6.07;5.33;;;;;;;;;;5135853;27;20959;-66
2022/08/10 05:55:45;;;;;;;7.20;4.97;;;;;;;;;;5136003;27;20882;-65
2022/08/10 05:58:13;;;;;;;6.60;5.90;;;;;;;;;;5135766;27;20596;-65
2022/08/10 06:00:40;;;;;;;6.47;5.83;;;;;;;;;;5136429;27;20446;-66
2022/08/10 06:03:09;;;;;;;15.83;6.10;;;;;;;;;;5135964;27;20516;-65
2022/08/10 06:05:37;;;;;;;10.27;6.70;;;;;;;;;;5136050;27;20469;-65
2022/08/10 06:08:10;;;;;;;7.80;6.37;;;;;;;;;;5135696;27;20526;-65
2022/08/10 06:10:38;;;;;;;14.33;6.03;;;;;;;;;;5135723;27;20418;-65
2022/08/10 06:15:53;;;;;;;7.53;4.93;;;;;;;;;;5135631;27;20484;-65
2022/08/10 06:18:23;;;;;;;7.43;4.80;;;;;;;;;;5135454;27;20435;-65
2022/08/10 06:20:51;;;;;;;6.87;4.60;;;;;;;;;;5135875;27;20458;-66
2022/08/10 06:23:18;;;;;;;7.03;5.50;;;;;;;;;;5135464;27;20453;-65
2022/08/10 06:25:46;;;;;;;7.10;4.67;;;;;;;;;;5135574;27;20451;-65
2022/08/10 06:28:15;;;;;;;5.27;4.77;;;;;;;;;;5135332;27;20439;-65
2022/08/10 06:30:42;;;;;;;8.60;4.27;;;;;;;;;;5135502;27;20447;-65
2022/08/10 06:33:10;;;;;;;6.47;4.40;;;;;;;;;;5135506;27;20443;-65
2022/08/10 06:35:39;;;;;;;4.73;4.27;;;;;;;;;;5135363;27;20558;-65
2022/08/10 06:38:07;;;;;;;7.60;4.60;;;;;;;;;;5135431;27;20455;-65
2022/08/10 06:40:35;;;;;;;11.07;3.97;;;;;;;;;;5134998;27;20994;-67
2022/08/10 06:43:05;;;;;;;6.93;4.43;;;;;;;;;;5135037;27;20442;-66
2022/08/10 06:45:35;;;;;;;4.90;4.07;;;;;;;;;;5134814;27;20547;-65
2022/08/10 06:48:04;;;;;;;5.50;3.63;;;;;;;;;;5135332;27;20478;-66
2022/08/10 06:50:35;;;;;;;7.90;3.60;;;;;;;;;;5135122;27;20438;-65
2022/08/10 06:53:08;;;;;;;4.90;4.23;;;;;;;;;;5135241;27;20510;-65
2022/08/10 06:55:36;;;;;;;6.60;4.00;;;;;;;;;;5134733;27;20513;-65
2022/08/10 06:58:04;;;;;;;6.20;3.83;;;;;;;;;;5135695;27;20944;-65
2022/08/10 07:00:32;;;;;;;6.60;3.20;;;;;;;;;;5135044;27;20856;-66
2022/08/10 07:03:04;;;;;;;4.80;3.50;;;;;;;;;;5134988;27;20567;-65
2022/08/10 07:05:32;;;;;;;4.87;3.53;;;;;;;;;;5134910;27;20437;-65
2022/08/10 07:08:01;;;;;;;6.20;4.10;;;;;;;;;;5134609;27;20527;-65
2022/08/10 07:10:30;;;;;;;5.53;3.47;;;;;;;;;;5134441;27;20440;-66
2022/08/10 07:13:00;;;;;;;4.90;4.10;;;;;;;;;;5134500;27;20476;-66
2022/08/10 07:15:28;;;;;;;4.40;2.90;;;;;;;;;;5133961;27;20477;-65
2022/08/10 07:17:57;;;;;;;9.00;4.50;;;;;;;;;;5134945;27;20451;-66
2022/08/10 07:20:24;;;;;;;5.50;4.00;;;;;;;;;;5134336;27;20945;-66
2022/08/10 07:22:53;;;;;;;6.20;3.40;;;;;;;;;;5134684;27;20445;-66
2022/08/10 07:25:23;;;;;;;7.90;3.47;;;;;;;;;;5134825;27;20445;-66
2022/08/10 07:27:51;;;;;;;4.80;3.73;;;;;;;;;;5134402;27;20440;-66
2022/08/10 07:30:19;;;;;;;8.13;4.17;;;;;;;;;;5134443;27;20807;-65
2022/08/10 07:32:48;;;;;;;3.83;2.90;;;;;;;;;;5134256;27;20445;-66
2022/08/10 07:35:16;;;;;;;4.03;3.20;;;;;;;;;;5134340;27;20942;-65
2022/08/10 07:37:45;;;;;;;5.50;3.20;;;;;;;;;;5134445;27;20478;-66
2022/08/10 07:40:14;;;;;;;4.63;3.53;;;;;;;;;;5134397;28;20932;-65
2022/08/10 07:42:43;;;;;;;4.20;3.30;;;;;;;;;;5134393;28;20791;-65
2022/08/10 07:45:12;;;;;;;5.73;2.97;;;;;;;;;;5134438;28;20869;-65
2022/08/10 07:47:42;;;;;;;9.33;3.47;;;;;;;;;;5134022;28;20988;-65
2022/08/10 07:50:11;;;;;;;6.50;3.63;;;;;;;;;;5134255;28;20899;-65
2022/08/10 07:52:39;;;;;;;4.27;3.50;;;;;;;;;;5134316;28;20915;-66
2022/08/10 07:55:08;;;;;;;3.27;3.07;;;;;;;;;;5133927;28;20437;-67
2022/08/10 07:57:37;;;;;;;4.67;3.23;;;;;;;;;;5134022;28;20473;-66
2022/08/10 08:00:07;;;;;;;5.03;3.30;;;;;;;;;;5134280;28;20798;-67
2022/08/10 08:02:37;;;;;;;3.10;2.77;;;;;;;;;;5134103;28;20438;-65
2022/08/10 08:05:07;;;;;;;3.30;3.00;;;;;;;;;;5133807;28;20517;-66
2022/08/10 08:07:35;;;;;;;3.30;3.00;;;;;;;;;;5134880;28;20430;-66
2022/08/10 08:10:03;;;;;;;15.70;4.30;;;;;;;;;;5133804;28;20528;-66
2022/08/10 08:12:32;;;;;;;7.13;2.83;;;;;;;;;;5134141;28;20446;-66
2022/08/10 08:15:00;;;;;;;4.07;3.10;;;;;;;;;;5134312;28;20564;-66
2022/08/10 08:17:29;;;;;;;3.60;3.30;;;;;;;;;;5133815;28;21000;-66
2022/08/10 08:19:58;;;;;;;6.20;3.17;;;;;;;;;;5133587;28;20440;-66
2022/08/10 08:22:27;;;;;;;4.00;3.10;;;;;;;;;;5134098;28;20451;-65
2022/08/10 08:24:56;;;;;;;5.60;3.20;;;;;;;;;;5133742;28;20536;-65
2022/08/10 08:27:24;;;;;;;5.40;2.90;;;;;;;;;;5137189;27;20457;-66
2022/08/10 08:29:52;;;;;;;3.90;3.30;;;;;;;;;;5137715;27;20470;-65
2022/08/10 08:32:21;;;;;;;4.97;3.10;;;;;;;;;;5137629;27;20532;-66
2022/08/10 08:34:49;;;;;;;3.30;3.10;;;;;;;;;;5137613;27;20430;-65
2022/08/10 08:37:20;;;;;;;3.10;2.80;;;;;;;;;;5137437;27;20474;-66
2022/08/10 08:39:47;;;;;;;3.47;3.10;;;;;;;;;;5138116;27;20433;-66
2022/08/10 08:42:19;;;;;;;5.03;3.10;;;;;;;;;;5137436;27;20446;-65
2022/08/10 08:44:51;;;;;;;7.63;3.40;;;;;;;;;;5137338;27;20525;-66
2022/08/10 08:47:33;;;;;;;3.90;3.20;;;;;;;;;;5137662;27;20515;-65
2022/08/10 08:50:07;;;;;;;4.63;3.13;;;;;;;;;;5137085;27;20500;-66
2022/08/10 08:52:44;;;;;;;13.97;2.97;;;;;;;;;;5137016;27;20424;-65
2022/08/10 08:55:17;;;;;;;5.93;3.40;;;;;;;;;;5136987;27;20911;-66
2022/08/10 08:57:49;;;;;;;7.93;3.47;;;;;;;;;;5137146;27;20467;-66
2022/08/10 09:00:20;;;;;;;7.13;3.13;;;;;;;;;;5137128;27;20510;-66
2022/08/10 09:03:02;;;;;;;3.50;3.20;;;;;;;;;;5137052;27;20436;-66
2022/08/10 09:05:33;;;;;;;5.07;3.20;;;;;;;;;;5137280;27;20439;-66
2022/08/10 09:08:11;;;;;;;3.17;2.73;;;;;;;;;;5137357;27;20509;-66
2022/08/10 09:10:42;;;;;;;3.30;3.00;;;;;;;;;;5136616;27;20974;-66
2022/08/10 09:13:14;;;;;;;4.70;3.20;;;;;;;;;;5137287;27;20434;-66
2022/08/10 09:15:47;;;;;;;2.60;2.40;;;;;;;;;;5137879;27;20567;-66
2022/08/10 09:18:18;;;;;;;3.90;2.73;;;;;;;;;;5137282;27;20460;-65
2022/08/10 09:20:47;;;;;;;7.07;3.33;;;;;;;;;;5136931;27;20523;-65
2022/08/10 09:23:20;;;;;;;4.60;2.83;;;;;;;;;;5136694;27;20487;-65
2022/08/10 09:25:52;;;;;;;3.47;3.10;;;;;;;;;;5136349;27;20423;-66
2022/08/10 09:28:22;;;;;;;3.40;3.10;;;;;;;;;;5136360;27;20551;-66
2022/08/10 09:30:52;;;;;;;3.80;3.33;;;;;;;;;;5136213;27;20435;-66
2022/08/10 09:33:21;;;;;;;3.30;3.00;;;;;;;;;;5136825;27;20440;-66
2022/08/10 09:35:52;;;;;;;6.20;3.13;;;;;;;;;;5136441;27;20531;-66
2022/08/10 09:38:25;;;;;;;4.37;2.70;;;;;;;;;;5135569;27;20473;-66
2022/08/10 09:40:58;;;;;;;3.90;2.90;;;;;;;;;;5136514;27;20455;-65
2022/08/10 09:43:35;;;;;;;3.57;3.27;;;;;;;;;;5136662;27;20437;-66
2022/08/10 09:46:07;;;;;;;3.97;2.67;;;;;;;;;;5136614;27;20444;-66
2022/08/10 09:48:40;;;;;;;2.60;2.40;;;;;;;;;;5136352;27;20433;-65
2022/08/10 09:51:09;;;;;;;3.33;2.93;;;;;;;;;;5135921;27;20422;-65
2022/08/10 09:53:43;;;;;;;3.77;2.50;;;;;;;;;;5135807;27;20625;-65
2022/08/10 09:56:16;;;;;;;5.13;2.40;;;;;;;;;;5136167;27;20457;-65
2022/08/10 09:58:46;;;;;;;8.10;3.00;;;;;;;;;;5135720;27;20472;-65
2022/08/10 10:01:19;;;;;;;2.63;2.43;;;;;;;;;;5136260;27;20465;-66
2022/08/10 10:03:54;;;;;;;2.90;2.70;;;;;;;;;;5136617;27;20752;-65
2022/08/10 10:06:24;;;;;;;3.43;2.60;;;;;;;;;;5135830;27;20427;-66
2022/08/10 10:09:03;;;;;;;3.93;2.37;;;;;;;;;;5135831;27;20516;-65
2022/08/10 10:11:35;;;;;;;6.10;2.60;;;;;;;;;;5135982;27;20508;-66
2022/08/10 10:14:08;;;;;;;3.00;2.80;;;;;;;;;;5135819;27;20557;-66
2022/08/10 10:16:44;;;;;;;3.83;2.83;;;;;;;;;;5135766;27;20498;-66
2022/08/10 10:19:18;;;;;;;4.93;3.77;;;;;;;;;;5135890;27;20429;-66
2022/08/10 10:21:49;;;;;;;5.70;4.27;;;;;;;;;;5136374;27;20791;-66
2022/08/10 10:24:23;;;;;;;5.80;2.90;;;;;;;;;;5136155;27;20429;-66
2022/08/10 10:26:52;;;;;;;6.37;2.67;;;;;;;;;;5136225;27;20409;-66
2022/08/10 10:29:25;;;;;;;4.90;3.30;;;;;;;;;;5135342;27;20421;-66
2022/08/10 10:31:54;;;;;;;7.00;4.77;;;;;;;;;;5135763;27;20426;-66
2022/08/10 10:34:28;;;;;;;4.50;3.83;;;;;;;;;;5135715;27;20862;-66
2022/08/10 10:36:56;;;;;;;4.47;3.33;;;;;;;;;;5135182;27;20478;-66
2022/08/10 10:39:26;;;;;;;6.47;2.53;;;;;;;;;;5135268;27;21003;-66
2022/08/10 10:41:57;;;;;;;3.73;2.77;;;;;;;;;;5135301;27;20481;-66
2022/08/10 10:44:30;;;;;;;2.90;2.40;;;;;;;;;;5135860;27;20875;-65
2022/08/10 10:46:59;;;;;;;2.67;2.27;;;;;;;;;;5135026;27;20903;-65
2022/08/10 10:49:31;;;;;;;4.30;2.50;;;;;;;;;;5134829;27;20979;-65
2022/08/10 10:52:03;;;;;;;7.00;3.17;;;;;;;;;;5135359;27;20777;-66
2022/08/10 10:54:40;;;;;;;3.60;2.60;;;;;;;;;;5134997;27;20427;-65
2022/08/10 10:57:14;;;;;;;3.90;2.80;;;;;;;;;;5135032;27;20466;-66
2022/08/10 10:59:46;;;;;;;3.23;2.53;;;;;;;;;;5134906;27;20828;-65
2022/08/10 11:02:20;;;;;;;3.13;2.57;;;;;;;;;;5135396;27;20438;-66
2022/08/10 11:04:50;;;;;;;2.83;2.47;;;;;;;;;;5135479;27;20801;-66
2022/08/10 11:07:20;;;;;;;5.13;2.33;;;;;;;;;;5134888;27;20445;-66
2022/08/10 11:09:51;;;;;;;4.30;2.70;;;;;;;;;;5134884;27;20985;-65
2022/08/10 11:12:20;;;;;;;2.20;2.10;;;;;;;;;;5134692;27;20509;-65
2022/08/10 11:14:50;;;;;;;4.33;2.00;;;;;;;;;;5134773;27;20561;-66
2022/08/10 11:17:19;;;;;;;2.90;2.10;;;;;;;;;;5134448;27;20462;-66
2022/08/10 11:19:53;;;;;;;3.67;3.37;;;;;;;;;;5135240;27;20409;-65
2022/08/10 11:22:22;;;;;;;3.60;2.30;;;;;;;;;;5134469;27;20510;-66
2022/08/10 11:24:56;;;;;;;4.90;2.50;;;;;;;;;;5134863;27;20499;-65
2022/08/10 11:27:35;;;;;;;3.00;2.60;;;;;;;;;;5135062;27;20418;-65
2022/08/10 11:30:07;;;;;;;3.80;2.20;;;;;;;;;;5134674;27;20480;-66
2022/08/10 11:32:37;;;;;;;2.13;2.03;;;;;;;;;;5135098;27;20957;-66
2022/08/10 11:35:15;;;;;;;2.47;2.27;;;;;;;;;;5134604;27;20462;-65
2022/08/10 11:37:49;;;;;;;3.10;2.20;;;;;;;;;;5134056;27;20507;-66
2022/08/10 11:40:21;;;;;;;7.10;2.73;;;;;;;;;;5135183;28;20488;-65
2022/08/10 11:42:58;;;;;;;3.03;2.20;;;;;;;;;;5135243;28;20494;-66
2022/08/10 11:45:33;;;;;;;4.90;2.50;;;;;;;;;;5134924;28;20495;-66
2022/08/10 11:48:05;;;;;;;1.90;1.80;;;;;;;;;;5134027;28;20441;-66
2022/08/10 11:50:35;;;;;;;2.30;2.00;;;;;;;;;;5134497;28;20422;-66
2022/08/10 11:53:12;;;;;;;2.50;2.30;;;;;;;;;;5134317;28;20847;-66
2022/08/10 11:55:43;;;;;;;4.90;2.63;;;;;;;;;;5134869;27;20756;-65
2022/08/10 12:00:55;;;;;;;3.30;2.27;;;;;;;;;;5134830;27;20490;-66
2022/08/10 12:03:23;;;;;;;4.13;2.40;;;;;;;;;;5138517;27;20942;-66
2022/08/10 12:05:55;;;;;;;4.73;2.83;;;;;;;;;;5138589;27;20505;-66
2022/08/10 12:08:23;;;;;;;2.40;2.17;;;;;;;;;;5138144;27;20439;-66
2022/08/10 12:10:52;;;;;;;2.83;2.37;;;;;;;;;;5138377;27;20462;-66
2022/08/10 12:13:22;;;;;;;6.63;2.77;;;;;;;;;;5138197;27;20448;-66
2022/08/10 12:15:54;;;;;;;2.57;2.37;;;;;;;;;;5138383;27;20531;-66
2022/08/10 12:18:24;;;;;;;3.93;2.03;;;;;;;;;;5137832;27;20445;-66
2022/08/10 12:20:56;;;;;;;2.87;2.30;;;;;;;;;;5137980;27;20523;-66
2022/08/10 12:23:26;;;;;;;4.43;2.20;;;;;;;;;;5138520;27;20399;-66
2022/08/10 12:25:58;;;;;;;4.20;1.90;;;;;;;;;;5137847;27;20445;-66
2022/08/10 12:28:30;;;;;;;2.40;2.20;;;;;;;;;;5138095;27;20897;-66
2022/08/10 12:30:58;;;;;;;4.00;2.60;;;;;;;;;;5137765;27;20391;-65
2022/08/10 12:33:27;;;;;;;2.63;2.20;;;;;;;;;;5137893;27;20497;-66
2022/08/10 12:35:59;;;;;;;3.63;2.80;;;;;;;;;;5137591;27;20500;-65
2022/08/10 12:38:31;;;;;;;2.60;2.33;;;;;;;;;;5137725;27;20507;-66
2022/08/10 12:41:01;;;;;;;2.20;2.00;;;;;;;;;;5138121;27;20397;-66
2022/08/10 12:43:33;;;;;;;2.83;2.10;;;;;;;;;;5137424;27;20906;-66
2022/08/10 12:46:04;;;;;;;3.33;2.23;;;;;;;;;;5137456;27;20436;-66
2022/08/10 12:48:34;;;;;;;4.10;2.13;;;;;;;;;;5137610;27;20497;-66
2022/08/10 12:51:04;;;;;;;1.80;1.70;;;;;;;;;;5137772;27;20491;-66
2022/08/10 12:53:36;;;;;;;2.10;1.90;;;;;;;;;;5137071;27;20448;-70
2022/08/10 12:56:06;;;;;;;2.73;2.40;;;;;;;;;;5137685;27;20821;-68
2022/08/10 12:58:33;;;;;;;2.23;2.00;;;;;;;;;;5137848;27;20540;-64
2022/08/10 13:01:04;;;;;;;2.70;2.37;;;;;;;;;;5137022;27;21050;-64
2022/08/10 13:03:32;;;;;;;6.27;2.30;;;;;;;;;;5137061;27;20417;-65
2022/08/10 13:06:03;;;;;;;3.53;2.53;;;;;;;;;;5137265;27;20436;-66
2022/08/10 13:11:20;;;;;;;3.53;2.13;;;;;;;;;;5123048;27;20454;-65
2022/08/10 13:13:48;;;;;;;3.10;2.23;;;;;;;;;;5135087;27;20566;-66
2022/08/10 13:16:18;;;;;;;2.23;2.03;;;;;;;;;;5136997;27;20402;-65
2022/08/10 13:18:46;;;;;;;5.00;2.10;;;;;;;;;;5136739;27;20449;-65
2022/08/10 13:21:15;;;;;;;5.40;2.10;;;;;;;;;;5136954;27;20532;-65
2022/08/10 13:23:48;;;;;;;3.83;3.30;;;;;;;;;;5137567;27;20505;-65
2022/08/10 13:26:17;;;;;;;2.80;2.40;;;;;;;;;;5137066;27;20431;-65
2022/08/10 13:28:47;;;;;;;5.10;2.10;;;;;;;;;;5137205;27;20430;-65
2022/08/10 13:31:17;;;;;;;2.70;2.10;;;;;;;;;;5137025;27;20450;-65
2022/08/10 13:33:47;;;;;;;3.83;2.30;;;;;;;;;;5136490;27;20442;-65
2022/08/10 13:36:15;;;;;;;4.00;2.10;;;;;;;;;;5136333;27;20413;-65
2022/08/10 13:38:47;;;;;;;3.00;2.27;;;;;;;;;;5136686;27;20542;-65
2022/08/10 13:41:14;;;;;;;4.67;2.23;;;;;;;;;;5136324;27;20436;-66
2022/08/10 13:43:51;;;;;;;2.73;2.50;;;;;;;;;;5135796;27;20536;-65
2022/08/10 13:46:19;;;;;;;2.27;2.07;;;;;;;;;;5135680;27;20924;-66
2022/08/10 13:48:47;;;;;;;2.20;1.90;;;;;;;;;;5136214;27;20524;-65
2022/08/10 13:51:14;;;;;;;3.30;3.00;;;;;;;;;;5135919;27;20468;-65
2022/08/10 13:53:43;;;;;;;4.33;1.97;;;;;;;;;;5136272;27;20525;-65
2022/08/10 13:56:11;;;;;;;2.70;2.00;;;;;;;;;;5135698;27;20430;-65
2022/08/10 13:58:40;;;;;;;5.80;4.13;;;;;;;;;;5136099;27;20567;-65
2022/08/10 14:01:11;;;;;;;2.80;2.50;;;;;;;;;;5136003;27;20539;-65
2022/08/10 14:03:39;;;;;;;2.20;2.10;;;;;;;;;;5136012;27;20504;-65
2022/08/10 14:06:08;;;;;;;2.83;2.17;;;;;;;;;;5135947;27;20470;-65
2022/08/10 14:08:36;;;;;;;8.30;2.40;;;;;;;;;;5135818;27;20546;-65
2022/08/10 14:11:06;;;;;;;3.10;1.80;;;;;;;;;;5135535;27;20474;-65
2022/08/10 14:13:36;;;;;;;4.53;2.23;;;;;;;;;;5135499;27;20434;-65
2022/08/10 14:16:06;;;;;;;3.57;2.10;;;;;;;;;;5094393;28;20463;-65
2022/08/10 14:18:36;;;;;;;4.07;2.50;;;;;;;;;;5095190;28;20885;-65
2022/08/10 14:21:03;;;;;;;6.00;2.37;;;;;;;;;;5094419;28;20476;-65
2022/08/10 14:23:31;;;;;;;5.63;2.40;;;;;;;;;;5094492;28;20473;-65
2022/08/10 14:26:04;;;;;;;2.57;2.37;;;;;;;;;;5094784;28;20495;-65
2022/08/10 14:28:33;;;;;;;5.80;3.10;;;;;;;;;;5094563;28;20955;-65
2022/08/10 14:31:01;;;;;;;1.80;1.70;;;;;;;;;;5094318;28;20439;-65
2022/08/10 14:33:29;;;;;;;2.50;2.30;;;;;;;;;;5095010;28;20532;-64
2022/08/10 14:35:58;;;;;;;2.20;2.00;;;;;;;;;;5094567;28;20872;-64
2022/08/10 14:38:28;;;;;;;3.47;2.43;;;;;;;;;;5094479;28;20565;-64
2022/08/10 14:40:56;;;;;;;3.07;2.23;;;;;;;;;;5094380;28;20445;-64
2022/08/10 14:43:25;;;;;;;4.50;2.20;;;;;;;;;;5094663;28;20533;-64
2022/08/10 14:45:56;;;;;;;2.13;2.00;;;;;;;;;;5094114;28;20828;-66
2022/08/10 14:48:25;;;;;;;3.10;2.30;;;;;;;;;;5094133;28;20435;-65
2022/08/10 14:50:53;;;;;;;6.97;2.17;;;;;;;;;;5094378;28;20457;-65
2022/08/10 14:53:23;;;;;;;3.30;2.50;;;;;;;;;;5094175;28;20544;-65
2022/08/10 14:55:51;;;;;;;4.17;3.13;;;;;;;;;;5093871;28;20535;-65
2022/08/10 14:58:20;;;;;;;2.33;2.13;;;;;;;;;;5094188;28;20583;-65
2022/08/10 15:00:48;;;;;;;4.70;3.07;;;;;;;;;;5094278;28;20438;-64
2022/08/10 15:03:16;;;;;;;3.50;2.97;;;;;;;;;;5094094;28;20468;-65
2022/08/10 15:05:45;;;;;;;7.70;2.50;;;;;;;;;;5094083;28;20796;-65